createdAt,value
2023-02-26T00:00:16.694Z,-0.52
2023-02-26T00:01:17.225Z,-0.52
2023-02-26T00:02:17.063Z,-0.49
2023-02-26T00:03:16.693Z,-0.51
2023-02-26T00:04:17.287Z,-0.54
2023-02-26T00:05:16.773Z,-0.56
2023-02-26T00:06:16.690Z,-0.61
2023-02-26T00:07:17.224Z,-0.58
2023-02-26T00:08:16.752Z,-0.61
2023-02-26T00:09:17.272Z,-0.65
2023-02-26T00:10:17.022Z,-0.66
2023-02-26T00:11:16.557Z,-0.69
2023-02-26T00:12:17.054Z,-0.69
2023-02-26T00:13:16.857Z,-0.72
2023-02-26T00:14:16.704Z,-0.70
2023-02-26T00:15:17.266Z,-0.74
2023-02-26T00:16:16.804Z,-0.74
2023-02-26T00:17:16.508Z,-0.73
2023-02-26T00:18:17.172Z,-0.74
2023-02-26T00:19:16.678Z,-0.79
2023-02-26T00:20:17.180Z,-0.82
2023-02-26T00:21:16.673Z,-0.83
2023-02-26T00:22:16.925Z,-0.84
2023-02-26T00:23:16.447Z,-0.84
2023-02-26T00:24:16.937Z,-0.86
2023-02-26T00:25:16.431Z,-0.91
2023-02-26T00:26:16.953Z,-0.91
2023-02-26T00:27:16.529Z,-0.90
2023-02-26T00:28:17.052Z,-0.93
2023-02-26T00:29:16.563Z,-0.94
2023-02-26T00:30:17.114Z,-0.87
2023-02-26T00:31:16.712Z,-0.83
2023-02-26T00:32:17.077Z,-0.83
2023-02-26T00:33:16.698Z,-0.83
2023-02-26T00:34:17.188Z,-0.87
2023-02-26T00:35:16.738Z,-0.86
2023-02-26T00:36:17.254Z,-0.84
2023-02-26T00:37:16.745Z,-0.90
2023-02-26T00:38:17.241Z,-0.94
2023-02-26T00:39:16.732Z,-0.98
2023-02-26T00:40:17.264Z,-1.01
2023-02-26T00:41:16.799Z,-1.01
2023-02-26T00:42:17.333Z,-1.01
2023-02-26T00:43:16.832Z,-1.01
2023-02-26T00:44:16.319Z,-1.06
2023-02-26T00:45:16.840Z,-1.00
2023-02-26T00:46:16.379Z,-1.00
2023-02-26T00:47:16.951Z,-1.10
2023-02-26T00:48:16.436Z,-1.14
2023-02-26T00:49:16.948Z,-1.16
2023-02-26T00:50:16.436Z,-1.16
2023-02-26T00:51:17.097Z,-1.14
2023-02-26T00:52:16.524Z,-1.17
2023-02-26T00:53:17.022Z,-1.17
2023-02-26T00:54:16.519Z,-1.16
2023-02-26T00:55:17.041Z,-1.16
2023-02-26T00:56:16.547Z,-1.16
2023-02-26T00:57:17.041Z,-1.17
2023-02-26T00:58:16.536Z,-1.20
2023-02-26T00:59:17.033Z,-1.17
2023-02-26T01:00:16.548Z,-1.18
2023-02-26T01:01:17.153Z,-1.18
2023-02-26T01:02:16.341Z,-1.16
2023-02-26T01:03:16.877Z,-1.20
2023-02-26T01:04:16.345Z,-1.17
2023-02-26T01:05:16.870Z,-1.17
2023-02-26T01:06:16.416Z,-1.17
2023-02-26T01:07:16.918Z,-1.14
2023-02-26T01:08:16.406Z,-1.11
2023-02-26T01:09:16.897Z,-1.13
2023-02-26T01:10:16.411Z,-1.13
2023-02-26T01:11:16.974Z,-1.11
2023-02-26T01:12:16.748Z,-1.10
2023-02-26T01:13:17.244Z,-1.06
2023-02-26T01:14:16.722Z,-1.03
2023-02-26T01:15:17.229Z,-1.04
2023-02-26T01:16:16.738Z,-1.03
2023-02-26T01:17:16.432Z,-1.04
2023-02-26T01:18:16.913Z,-1.03
2023-02-26T01:19:16.433Z,-1.01
2023-02-26T01:20:16.945Z,-1.06
2023-02-26T01:21:16.445Z,-1.00
2023-02-26T01:22:16.809Z,-1.03
2023-02-26T01:23:16.330Z,-0.91
2023-02-26T01:24:16.907Z,-0.93
2023-02-26T01:25:16.394Z,-0.96
2023-02-26T01:26:16.915Z,-1.01
2023-02-26T01:27:16.433Z,-1.03
2023-02-26T01:28:16.914Z,-1.04
2023-02-26T01:29:16.427Z,-1.06
2023-02-26T01:30:16.956Z,-1.06
2023-02-26T01:31:16.470Z,-1.08
2023-02-26T01:32:17.129Z,-1.08
2023-02-26T01:33:16.419Z,-1.11
2023-02-26T01:34:16.943Z,-1.17
2023-02-26T01:35:16.431Z,-1.16
2023-02-26T01:36:16.949Z,-1.17
2023-02-26T01:37:16.434Z,-1.16
2023-02-26T01:38:16.932Z,-1.14
2023-02-26T01:39:16.424Z,-1.14
2023-02-26T01:40:16.927Z,-1.17
2023-02-26T01:41:16.445Z,-1.18
2023-02-26T01:42:16.774Z,-1.23
2023-02-26T01:43:17.255Z,-1.25
2023-02-26T01:44:16.795Z,-1.28
2023-02-26T01:45:17.301Z,-1.29
2023-02-26T01:46:16.795Z,-1.28
2023-02-26T01:47:16.410Z,-1.27
2023-02-26T01:48:16.897Z,-1.28
2023-02-26T01:49:16.440Z,-1.29
2023-02-26T01:50:16.951Z,-1.31
2023-02-26T01:51:16.453Z,-1.32
2023-02-26T01:52:16.973Z,-1.34
2023-02-26T01:53:16.466Z,-1.36
2023-02-26T01:54:16.974Z,-1.36
2023-02-26T01:55:16.544Z,-1.38
2023-02-26T01:56:17.015Z,-1.38
2023-02-26T01:57:16.618Z,-1.38
2023-02-26T01:58:17.231Z,-1.41
2023-02-26T01:59:16.738Z,-1.42
2023-02-26T02:00:17.263Z,-1.41
2023-02-26T02:01:16.782Z,-1.42
2023-02-26T02:02:16.597Z,-1.42
2023-02-26T02:03:17.207Z,-1.42
2023-02-26T02:04:16.858Z,-1.42
2023-02-26T02:05:16.410Z,-1.44
2023-02-26T02:06:17.051Z,-1.48
2023-02-26T02:07:16.577Z,-1.48
2023-02-26T02:08:17.121Z,-1.49
2023-02-26T02:09:16.716Z,-1.46
2023-02-26T02:10:17.210Z,-1.48
2023-02-26T02:11:16.702Z,-1.52
2023-02-26T02:12:16.423Z,-1.52
2023-02-26T02:13:16.917Z,-1.56
2023-02-26T02:14:16.436Z,-1.53
2023-02-26T02:15:17.002Z,-1.53
2023-02-26T02:16:16.584Z,-1.53
2023-02-26T02:17:17.214Z,-1.49
2023-02-26T02:18:16.719Z,-1.53
2023-02-26T02:19:17.228Z,-1.52
2023-02-26T02:20:16.864Z,-1.53
2023-02-26T02:21:16.344Z,-1.53
2023-02-26T02:22:16.916Z,-1.53
2023-02-26T02:23:16.438Z,-1.56
2023-02-26T02:24:16.300Z,-1.56
2023-02-26T02:25:16.785Z,-1.55
2023-02-26T02:26:16.560Z,-1.53
2023-02-26T02:27:17.064Z,-1.52
2023-02-26T02:28:16.588Z,-1.52
2023-02-26T02:29:17.070Z,-1.53
2023-02-26T02:30:16.585Z,-1.53
2023-02-26T02:31:17.119Z,-1.51
2023-02-26T02:32:17.363Z,-1.53
2023-02-26T02:33:17.090Z,-1.49
2023-02-26T02:34:16.597Z,-1.51
2023-02-26T02:35:17.080Z,-1.51
2023-02-26T02:36:16.559Z,-1.52
2023-02-26T02:37:17.067Z,-1.52
2023-02-26T02:38:16.571Z,-1.55
2023-02-26T02:39:17.090Z,-1.53
2023-02-26T02:40:16.575Z,-1.51
2023-02-26T02:41:17.107Z,-1.51
2023-02-26T02:42:16.994Z,-1.52
2023-02-26T02:43:16.495Z,-1.55
2023-02-26T02:44:16.998Z,-1.55
2023-02-26T02:45:16.509Z,-1.58
2023-02-26T02:46:17.147Z,-1.59
2023-02-26T02:47:16.958Z,-1.60
2023-02-26T02:48:16.462Z,-1.64
2023-02-26T02:49:16.962Z,-1.67
2023-02-26T02:50:16.469Z,-1.63
2023-02-26T02:51:16.964Z,-1.67
2023-02-26T02:52:17.210Z,-1.70
2023-02-26T02:53:16.736Z,-1.70
2023-02-26T02:54:17.231Z,-1.72
2023-02-26T02:55:16.724Z,-1.72
2023-02-26T02:56:17.249Z,-1.76
2023-02-26T02:57:16.766Z,-1.76
2023-02-26T02:58:17.305Z,-1.77
2023-02-26T02:59:16.819Z,-1.74
2023-02-26T03:00:16.340Z,-1.76
2023-02-26T03:01:16.857Z,-1.77
2023-02-26T03:02:16.554Z,-1.81
2023-02-26T03:03:17.117Z,-1.81
2023-02-26T03:04:16.608Z,-1.83
2023-02-26T03:05:17.127Z,-1.84
2023-02-26T03:06:16.601Z,-1.86
2023-02-26T03:07:17.119Z,-1.84
2023-02-26T03:08:16.619Z,-1.84
2023-02-26T03:09:17.108Z,-1.86
2023-02-26T03:10:16.608Z,-1.87
2023-02-26T03:11:17.110Z,-1.87
2023-02-26T03:12:16.851Z,-1.90
2023-02-26T03:13:16.358Z,-1.88
2023-02-26T03:14:16.866Z,-1.88
2023-02-26T03:15:16.440Z,-1.91
2023-02-26T03:16:16.949Z,-1.97
2023-02-26T03:17:16.506Z,-1.95
2023-02-26T03:18:16.987Z,-1.95
2023-02-26T03:19:16.573Z,-1.95
2023-02-26T03:20:17.077Z,-1.97
2023-02-26T03:21:16.557Z,-2.02
2023-02-26T03:22:16.328Z,-2.04
2023-02-26T03:23:16.867Z,-2.05
2023-02-26T03:24:16.386Z,-2.02
2023-02-26T03:25:16.874Z,-2.07
2023-02-26T03:26:16.397Z,-2.09
2023-02-26T03:27:16.876Z,-2.11
2023-02-26T03:28:16.388Z,-2.11
2023-02-26T03:29:16.893Z,-2.12
2023-02-26T03:30:16.394Z,-2.12
2023-02-26T03:31:16.975Z,-2.14
2023-02-26T03:32:17.315Z,-2.17
2023-02-26T03:33:17.077Z,-2.17
2023-02-26T03:34:16.561Z,-2.18
2023-02-26T03:35:17.075Z,-2.15
2023-02-26T03:36:16.582Z,-2.17
2023-02-26T03:37:17.099Z,-2.14
2023-02-26T03:38:16.574Z,-2.14
2023-02-26T03:39:17.110Z,-2.11
2023-02-26T03:40:16.628Z,-2.08
2023-02-26T03:41:17.145Z,-2.08
2023-02-26T03:42:16.934Z,-2.11
2023-02-26T03:43:16.420Z,-2.12
2023-02-26T03:44:16.917Z,-2.12
2023-02-26T03:45:16.393Z,-2.14
2023-02-26T03:46:16.935Z,-2.17
2023-02-26T03:47:16.489Z,-2.18
2023-02-26T03:48:17.039Z,-2.18
2023-02-26T03:49:16.572Z,-2.18
2023-02-26T03:50:17.115Z,-2.21
2023-02-26T03:51:16.715Z,-2.17
2023-02-26T03:52:16.421Z,-2.18
2023-02-26T03:53:16.945Z,-2.19
2023-02-26T03:54:16.427Z,-2.18
2023-02-26T03:55:16.923Z,-2.17
2023-02-26T03:56:16.422Z,-2.11
2023-02-26T03:57:16.956Z,-2.09
2023-02-26T03:58:16.427Z,-2.09
2023-02-26T03:59:16.923Z,-2.08
2023-02-26T04:00:16.424Z,-2.08
2023-02-26T04:01:16.934Z,-2.08
2023-02-26T04:02:17.355Z,-2.05
2023-02-26T04:03:16.919Z,-2.00
2023-02-26T04:04:16.556Z,-1.98
2023-02-26T04:05:17.125Z,-1.97
2023-02-26T04:06:16.620Z,-1.91
2023-02-26T04:07:17.134Z,-1.91
2023-02-26T04:08:16.628Z,-1.91
2023-02-26T04:09:17.126Z,-1.90
2023-02-26T04:10:16.639Z,-1.86
2023-02-26T04:11:17.109Z,-1.88
2023-02-26T04:12:16.934Z,-1.81
2023-02-26T04:13:16.419Z,-1.81
2023-02-26T04:14:16.932Z,-1.81
2023-02-26T04:15:16.451Z,-1.81
2023-02-26T04:16:17.003Z,-1.80
2023-02-26T04:17:18.437Z,-1.79
2023-02-26T04:18:17.211Z,-1.79
2023-02-26T04:19:16.722Z,-1.74
2023-02-26T04:20:17.205Z,-1.73
2023-02-26T04:21:16.682Z,-1.70
2023-02-26T04:22:17.007Z,-1.69
2023-02-26T04:23:16.508Z,-1.69
2023-02-26T04:24:17.002Z,-1.66
2023-02-26T04:25:16.562Z,-1.66
2023-02-26T04:26:17.100Z,-1.58
2023-02-26T04:27:16.574Z,-1.59
2023-02-26T04:28:17.085Z,-1.56
2023-02-26T04:29:16.593Z,-1.58
2023-02-26T04:30:17.093Z,-1.53
2023-02-26T04:31:16.706Z,-1.53
2023-02-26T04:32:17.251Z,-1.52
2023-02-26T04:33:16.788Z,-1.56
2023-02-26T04:34:17.296Z,-1.51
2023-02-26T04:35:16.783Z,-1.49
2023-02-26T04:36:16.435Z,-1.48
2023-02-26T04:37:16.940Z,-1.51
2023-02-26T04:38:16.464Z,-1.51
2023-02-26T04:39:16.978Z,-1.49
2023-02-26T04:40:16.457Z,-1.48
2023-02-26T04:41:16.956Z,-1.48
2023-02-26T04:42:16.484Z,-1.49
2023-02-26T04:43:16.958Z,-1.49
2023-02-26T04:44:16.458Z,-1.48
2023-02-26T04:45:16.957Z,-1.46
2023-02-26T04:46:16.528Z,-1.46
2023-02-26T04:47:17.130Z,-1.44
2023-02-26T04:48:16.645Z,-1.44
2023-02-26T04:49:17.144Z,-1.39
2023-02-26T04:50:16.632Z,-1.38
2023-02-26T04:51:17.120Z,-1.39
2023-02-26T04:52:16.647Z,-1.35
2023-02-26T04:53:17.169Z,-1.35
2023-02-26T04:54:16.651Z,-1.34
2023-02-26T04:55:17.146Z,-1.32
2023-02-26T04:56:16.663Z,-1.28
2023-02-26T04:57:17.195Z,-1.27
2023-02-26T04:58:16.675Z,-1.27
2023-02-26T04:59:17.150Z,-1.29
2023-02-26T05:00:16.667Z,-1.25
2023-02-26T05:01:17.179Z,-1.24
2023-02-26T05:02:16.968Z,-1.24
2023-02-26T05:03:16.456Z,-1.23
2023-02-26T05:04:17.038Z,-1.21
2023-02-26T05:05:16.659Z,-1.20
2023-02-26T05:06:17.194Z,-1.18
2023-02-26T05:07:16.706Z,-1.20
2023-02-26T05:08:17.221Z,-1.18
2023-02-26T05:09:16.746Z,-1.20
2023-02-26T05:10:17.235Z,-1.23
2023-02-26T05:11:16.763Z,-1.23
2023-02-26T05:12:16.521Z,-1.21
2023-02-26T05:13:17.001Z,-1.24
2023-02-26T05:14:16.499Z,-1.23
2023-02-26T05:15:17.004Z,-1.20
2023-02-26T05:16:16.541Z,-1.21
2023-02-26T05:17:17.156Z,-1.16
2023-02-26T05:18:16.652Z,-1.10
2023-02-26T05:19:17.172Z,-1.11
2023-02-26T05:20:16.680Z,-1.07
2023-02-26T05:21:17.184Z,-1.07
2023-02-26T05:22:16.867Z,-1.07
2023-02-26T05:23:16.374Z,-1.08
2023-02-26T05:24:16.883Z,-1.06
2023-02-26T05:25:16.364Z,-1.06
2023-02-26T05:26:16.846Z,-1.01
2023-02-26T05:27:16.346Z,-1.08
2023-02-26T05:28:16.876Z,-1.11
2023-02-26T05:29:16.411Z,-1.13
2023-02-26T05:30:16.927Z,-1.13
2023-02-26T05:31:16.475Z,-1.14
2023-02-26T05:32:17.350Z,-1.13
2023-02-26T05:33:16.989Z,-1.10
2023-02-26T05:34:16.502Z,-1.07
2023-02-26T05:35:17.043Z,-1.04
2023-02-26T05:36:16.518Z,-1.08
2023-02-26T05:37:17.024Z,-1.10
2023-02-26T05:38:16.531Z,-1.03
2023-02-26T05:39:17.023Z,-1.03
2023-02-26T05:40:16.528Z,-1.06
2023-02-26T05:41:17.037Z,-1.01
2023-02-26T05:42:16.406Z,-1.03
2023-02-26T05:43:16.925Z,-1.01
2023-02-26T05:44:16.425Z,-0.94
2023-02-26T05:45:16.919Z,-1.00
2023-02-26T05:46:16.445Z,-1.01
2023-02-26T05:47:16.987Z,-1.00
2023-02-26T05:48:16.575Z,-0.97
2023-02-26T05:49:17.117Z,-0.96
2023-02-26T05:50:16.602Z,-0.94
2023-02-26T05:51:17.115Z,-0.93
2023-02-26T05:52:16.523Z,-0.91
2023-02-26T05:53:17.020Z,-0.94
2023-02-26T05:54:16.509Z,-0.96
2023-02-26T05:55:16.986Z,-0.91
2023-02-26T05:56:17.816Z,-0.94
2023-02-26T05:57:16.464Z,-0.91
2023-02-26T05:58:16.975Z,-0.90
2023-02-26T05:59:16.499Z,-0.93
2023-02-26T06:00:16.974Z,-0.93
2023-02-26T06:01:16.486Z,-0.93
2023-02-26T06:02:17.078Z,-0.89
2023-02-26T06:03:16.747Z,-0.86
2023-02-26T06:04:16.352Z,-0.89
2023-02-26T06:05:16.850Z,-0.84
2023-02-26T06:06:16.391Z,-0.86
2023-02-26T06:07:16.880Z,-0.90
2023-02-26T06:08:16.384Z,-0.87
2023-02-26T06:09:16.931Z,-0.87
2023-02-26T06:10:16.426Z,-0.89
2023-02-26T06:11:16.971Z,-0.90
2023-02-26T06:12:17.344Z,-0.93
2023-02-26T06:13:16.813Z,-0.91
2023-02-26T06:14:17.339Z,-0.94
2023-02-26T06:15:16.840Z,-0.96
2023-02-26T06:16:16.428Z,-0.97
2023-02-26T06:17:16.991Z,-0.96
2023-02-26T06:18:16.515Z,-0.91
2023-02-26T06:19:17.025Z,-0.89
2023-02-26T06:20:16.541Z,-0.91
2023-02-26T06:21:17.036Z,-0.89
2023-02-26T06:22:16.719Z,-0.90
2023-02-26T06:23:17.207Z,-0.90
2023-02-26T06:24:16.743Z,-0.87
2023-02-26T06:25:17.274Z,-0.87
2023-02-26T06:26:16.787Z,-0.86
2023-02-26T06:27:17.323Z,-0.87
2023-02-26T06:28:16.871Z,-0.90
2023-02-26T06:29:16.365Z,-0.90
2023-02-26T06:30:16.926Z,-0.91
2023-02-26T06:31:16.444Z,-0.91
2023-02-26T06:32:17.189Z,-0.86
2023-02-26T06:33:16.908Z,-0.84
2023-02-26T06:34:16.414Z,-0.82
2023-02-26T06:35:16.895Z,-0.80
2023-02-26T06:36:16.385Z,-0.76
2023-02-26T06:37:16.866Z,-0.79
2023-02-26T06:38:16.351Z,-0.83
2023-02-26T06:39:16.848Z,-0.86
2023-02-26T06:40:16.365Z,-0.87
2023-02-26T06:41:16.850Z,-0.87
2023-02-26T06:42:18.450Z,-0.86
2023-02-26T06:43:16.678Z,-0.89
2023-02-26T06:44:17.186Z,-0.82
2023-02-26T06:45:16.693Z,-0.83
2023-02-26T06:46:17.265Z,-0.82
2023-02-26T06:47:16.873Z,-0.82
2023-02-26T06:48:16.359Z,-0.82
2023-02-26T06:49:16.853Z,-0.82
2023-02-26T06:50:16.339Z,-0.82
2023-02-26T06:51:16.832Z,-0.73
2023-02-26T06:52:16.559Z,-0.66
2023-02-26T06:53:17.035Z,-0.68
2023-02-26T06:54:16.557Z,-0.62
2023-02-26T06:55:17.076Z,-0.63
2023-02-26T06:56:16.639Z,-0.59
2023-02-26T06:57:17.123Z,-0.59
2023-02-26T06:58:16.636Z,-0.61
2023-02-26T06:59:17.176Z,-0.59
2023-02-26T07:00:16.966Z,-0.59
2023-02-26T07:01:16.586Z,-0.52
2023-02-26T07:02:17.269Z,-0.46
2023-02-26T07:03:16.878Z,-0.37
2023-02-26T07:04:16.394Z,-0.33
2023-02-26T07:05:17.173Z,-0.26
2023-02-26T07:06:26.772Z,-0.11
2023-02-26T07:07:16.636Z,-0.07
2023-02-26T07:08:17.146Z,-0.06
2023-02-26T07:09:16.631Z,-0.14
2023-02-26T07:10:17.180Z,-0.14
2023-02-26T07:11:16.673Z,-0.20
2023-02-26T07:12:17.060Z,-0.26
2023-02-26T07:13:16.579Z,-0.24
2023-02-26T07:14:17.060Z,-0.26
2023-02-26T07:15:16.567Z,-0.19
2023-02-26T07:16:17.073Z,-0.19
2023-02-26T07:17:16.586Z,-0.16
2023-02-26T07:18:17.082Z,-0.20
2023-02-26T07:19:16.603Z,-0.17
2023-02-26T07:20:17.141Z,-0.24
2023-02-26T07:21:16.639Z,-0.20
2023-02-26T07:22:17.015Z,-0.11
2023-02-26T07:23:16.523Z,-0.20
2023-02-26T07:24:17.137Z,-0.26
2023-02-26T07:25:16.645Z,-0.27
2023-02-26T07:26:17.150Z,-0.27
2023-02-26T07:27:16.648Z,-0.35
2023-02-26T07:28:17.157Z,-0.37
2023-02-26T07:29:16.650Z,-0.35
2023-02-26T07:30:17.187Z,-0.48
2023-02-26T07:31:16.834Z,-0.48
2023-02-26T07:32:16.442Z,-0.51
2023-02-26T07:33:17.020Z,-0.55
2023-02-26T07:34:16.513Z,-0.55
2023-02-26T07:35:17.026Z,-0.54
2023-02-26T07:36:16.551Z,-0.49
2023-02-26T07:37:17.051Z,-0.48
2023-02-26T07:38:18.515Z,-0.51
2023-02-26T07:39:17.149Z,-0.49
2023-02-26T07:40:16.670Z,-0.49
2023-02-26T07:41:17.160Z,-0.51
2023-02-26T07:42:16.745Z,-0.45
2023-02-26T07:43:17.232Z,-0.44
2023-02-26T07:44:16.741Z,-0.41
2023-02-26T07:45:17.220Z,-0.33
2023-02-26T07:46:16.819Z,-0.34
2023-02-26T07:47:16.363Z,-0.34
2023-02-26T07:48:17.667Z,-0.31
2023-02-26T07:49:16.308Z,-0.31
2023-02-26T07:50:16.781Z,-0.28
2023-02-26T07:51:17.284Z,-0.26
2023-02-26T07:52:16.868Z,-0.19
2023-02-26T07:53:16.373Z,-0.13
2023-02-26T07:54:16.849Z,-0.05
2023-02-26T07:55:16.347Z,0.11
2023-02-26T07:56:16.860Z,0.18
2023-02-26T07:57:16.371Z,0.26
2023-02-26T07:58:16.900Z,0.31
2023-02-26T07:59:16.394Z,0.35
2023-02-26T08:00:16.923Z,0.39
2023-02-26T08:01:16.464Z,0.51
2023-02-26T08:02:17.026Z,0.59
2023-02-26T08:03:16.532Z,0.67
2023-02-26T08:04:17.036Z,0.66
2023-02-26T08:05:16.633Z,0.63
2023-02-26T08:06:17.107Z,0.62
2023-02-26T08:07:16.611Z,0.49
2023-02-26T08:08:17.107Z,0.53
2023-02-26T08:09:16.606Z,0.53
2023-02-26T08:10:17.124Z,0.53
2023-02-26T08:11:16.676Z,0.63
2023-02-26T08:12:17.235Z,0.80
2023-02-26T08:13:16.770Z,0.67
2023-02-26T08:14:17.262Z,0.71
2023-02-26T08:15:16.752Z,0.77
2023-02-26T08:16:17.315Z,0.77
2023-02-26T08:17:17.060Z,0.94
2023-02-26T08:18:16.580Z,0.99
2023-02-26T08:19:17.075Z,1.15
2023-02-26T08:20:16.575Z,1.11
2023-02-26T08:21:17.057Z,1.15
2023-02-26T08:22:16.415Z,1.12
2023-02-26T08:23:16.898Z,1.21
2023-02-26T08:24:16.385Z,1.19
2023-02-26T08:25:16.901Z,1.22
2023-02-26T08:26:16.406Z,1.33
2023-02-26T08:27:16.909Z,1.39
2023-02-26T08:28:16.407Z,1.45
2023-02-26T08:29:16.897Z,1.49
2023-02-26T08:30:16.386Z,1.92
2023-02-26T08:31:16.965Z,2.06
2023-02-26T08:32:16.588Z,2.39
2023-02-26T08:33:17.239Z,2.23
2023-02-26T08:34:16.708Z,2.79
2023-02-26T08:35:17.236Z,3.00
2023-02-26T08:36:16.712Z,2.67
2023-02-26T08:37:17.224Z,2.60
2023-02-26T08:38:16.706Z,2.87
2023-02-26T08:39:17.223Z,2.95
2023-02-26T08:40:16.766Z,2.81
2023-02-26T08:41:17.250Z,2.87
2023-02-26T08:42:16.527Z,2.94
2023-02-26T08:43:17.023Z,3.00
2023-02-26T08:44:16.526Z,3.16
2023-02-26T08:45:17.053Z,3.30
2023-02-26T08:46:16.614Z,3.54
2023-02-26T08:47:27.912Z,4.00
2023-02-26T08:48:16.607Z,4.10
2023-02-26T08:49:17.098Z,4.72
2023-02-26T08:50:16.626Z,5.04
2023-02-26T08:51:17.145Z,4.97
2023-02-26T08:52:16.508Z,4.95
2023-02-26T08:53:16.997Z,5.04
2023-02-26T08:54:16.488Z,4.34
2023-02-26T08:55:17.013Z,3.95
2023-02-26T08:56:16.524Z,3.90
2023-02-26T08:57:17.035Z,3.85
2023-02-26T08:58:16.534Z,3.60
2023-02-26T08:59:17.028Z,3.44
2023-02-26T09:00:16.510Z,3.28
2023-02-26T09:01:16.987Z,3.19
2023-02-26T09:02:16.552Z,2.81
2023-02-26T09:03:17.203Z,2.44
2023-02-26T09:04:16.811Z,2.56
2023-02-26T09:05:17.312Z,2.75
2023-02-26T09:06:16.823Z,2.89
2023-02-26T09:07:16.326Z,3.06
2023-02-26T09:08:16.833Z,2.96
2023-02-26T09:09:16.330Z,3.00
2023-02-26T09:10:16.828Z,2.85
2023-02-26T09:11:16.327Z,2.61
2023-02-26T09:12:17.320Z,2.44
2023-02-26T09:13:16.837Z,2.40
2023-02-26T09:14:16.326Z,2.17
2023-02-26T09:15:16.821Z,2.01
2023-02-26T09:16:17.376Z,2.01
2023-02-26T09:17:16.954Z,2.09
2023-02-26T09:18:16.440Z,2.06
2023-02-26T09:19:16.942Z,2.25
2023-02-26T09:20:16.471Z,2.04
2023-02-26T09:21:16.969Z,1.57
2023-02-26T09:22:16.327Z,1.43
2023-02-26T09:23:16.822Z,1.25
2023-02-26T09:24:16.372Z,1.18
2023-02-26T09:25:16.906Z,1.25
2023-02-26T09:26:16.395Z,1.26
2023-02-26T09:27:16.897Z,1.40
2023-02-26T09:28:16.408Z,1.40
2023-02-26T09:29:16.908Z,1.39
2023-02-26T09:30:16.405Z,1.38
2023-02-26T09:31:16.984Z,1.42
2023-02-26T09:32:17.064Z,1.40
2023-02-26T09:33:16.897Z,1.28
2023-02-26T09:34:16.404Z,1.35
2023-02-26T09:35:16.913Z,1.33
2023-02-26T09:36:16.393Z,1.25
2023-02-26T09:37:16.904Z,1.33
2023-02-26T09:38:16.426Z,1.24
2023-02-26T09:39:16.925Z,1.12
2023-02-26T09:40:16.416Z,1.11
2023-02-26T09:41:16.909Z,1.12
2023-02-26T09:42:16.548Z,1.21
2023-02-26T09:43:17.031Z,1.14
2023-02-26T09:44:16.567Z,1.11
2023-02-26T09:45:17.089Z,1.14
2023-02-26T09:46:16.616Z,1.21
2023-02-26T09:47:17.193Z,1.19
2023-02-26T09:48:16.698Z,1.31
2023-02-26T09:49:17.183Z,1.46
2023-02-26T09:50:16.688Z,1.52
2023-02-26T09:51:17.205Z,1.57
2023-02-26T09:52:16.878Z,1.56
2023-02-26T09:53:16.386Z,1.56
2023-02-26T09:54:16.846Z,1.53
2023-02-26T09:55:16.316Z,1.54
2023-02-26T09:56:16.805Z,1.25
2023-02-26T09:57:17.320Z,1.14
2023-02-26T09:58:18.711Z,1.14
2023-02-26T09:59:16.509Z,1.12
2023-02-26T10:00:17.026Z,1.28
2023-02-26T10:01:16.521Z,1.31
2023-02-26T10:02:17.210Z,1.09
2023-02-26T10:03:16.714Z,1.22
2023-02-26T10:04:19.443Z,1.15
2023-02-26T10:05:17.312Z,1.19
2023-02-26T10:06:16.830Z,1.40
2023-02-26T10:07:16.376Z,1.52
2023-02-26T10:08:16.852Z,1.60
2023-02-26T10:09:16.333Z,1.60
2023-02-26T10:10:16.868Z,1.81
2023-02-26T10:11:16.371Z,1.84
2023-02-26T10:12:16.809Z,1.78
2023-02-26T10:13:17.288Z,1.74
2023-02-26T10:14:16.758Z,1.71
2023-02-26T10:15:17.275Z,1.67
2023-02-26T10:16:16.777Z,1.71
2023-02-26T10:17:16.339Z,1.75
2023-02-26T10:18:16.849Z,1.81
2023-02-26T10:19:16.358Z,1.77
2023-02-26T10:20:16.959Z,1.60
2023-02-26T10:21:16.554Z,1.39
2023-02-26T10:22:16.767Z,1.42
2023-02-26T10:23:17.242Z,1.46
2023-02-26T10:24:16.723Z,1.43
2023-02-26T10:25:17.230Z,1.31
2023-02-26T10:26:16.726Z,1.40
2023-02-26T10:27:17.235Z,1.52
2023-02-26T10:28:16.725Z,1.54
2023-02-26T10:29:17.260Z,1.45
2023-02-26T10:30:16.768Z,1.43
2023-02-26T10:31:17.260Z,1.43
2023-02-26T10:32:16.741Z,1.39
2023-02-26T10:33:16.403Z,1.49
2023-02-26T10:34:16.926Z,1.29
2023-02-26T10:35:16.465Z,1.28
2023-02-26T10:36:16.998Z,1.16
2023-02-26T10:37:16.506Z,1.14
2023-02-26T10:38:16.977Z,1.14
2023-02-26T10:39:16.471Z,1.14
2023-02-26T10:40:16.987Z,1.21
2023-02-26T10:41:16.528Z,1.31
2023-02-26T10:42:17.208Z,1.25
2023-02-26T10:43:16.728Z,1.25
2023-02-26T10:44:17.234Z,1.35
2023-02-26T10:45:16.742Z,1.39
2023-02-26T10:46:17.315Z,1.60
2023-02-26T10:47:17.125Z,1.75
2023-02-26T10:48:16.622Z,1.61
2023-02-26T10:49:17.117Z,1.67
2023-02-26T10:50:16.647Z,1.75
2023-02-26T10:51:17.136Z,1.81
2023-02-26T10:52:16.379Z,1.89
2023-02-26T10:53:16.856Z,1.95
2023-02-26T10:54:16.340Z,1.99
2023-02-26T10:55:16.844Z,2.10
2023-02-26T10:56:16.326Z,2.04
2023-02-26T10:57:16.812Z,1.98
2023-02-26T10:58:16.333Z,2.15
2023-02-26T10:59:16.950Z,2.23
2023-02-26T11:00:16.452Z,2.26
2023-02-26T11:01:17.195Z,2.43
2023-02-26T11:02:17.223Z,2.46
2023-02-26T11:03:16.769Z,2.59
2023-02-26T11:04:17.260Z,2.71
2023-02-26T11:05:16.776Z,2.59
2023-02-26T11:06:17.270Z,2.19
2023-02-26T11:07:16.763Z,2.17
2023-02-26T11:08:17.275Z,2.74
2023-02-26T11:09:16.780Z,2.98
2023-02-26T11:10:17.279Z,3.02
2023-02-26T11:11:16.765Z,3.27
2023-02-26T11:12:17.044Z,3.23
2023-02-26T11:13:16.574Z,3.55
2023-02-26T11:14:17.073Z,3.07
2023-02-26T11:15:16.597Z,2.94
2023-02-26T11:16:17.170Z,2.70
2023-02-26T11:17:16.906Z,2.17
2023-02-26T11:18:16.449Z,2.20
2023-02-26T11:19:16.982Z,2.32
2023-02-26T11:20:16.489Z,2.42
2023-02-26T11:21:16.989Z,2.47
2023-02-26T11:22:16.354Z,2.61
2023-02-26T11:23:16.828Z,2.88
2023-02-26T11:24:16.317Z,3.12
2023-02-26T11:25:16.818Z,3.27
2023-02-26T11:26:16.341Z,3.57
2023-02-26T11:27:16.868Z,3.78
2023-02-26T11:28:16.358Z,3.74
2023-02-26T11:29:16.937Z,3.58
2023-02-26T11:30:16.453Z,3.54
2023-02-26T11:31:17.001Z,3.31
2023-02-26T11:32:17.111Z,3.13
2023-02-26T11:33:16.772Z,2.81
2023-02-26T11:34:17.297Z,3.17
2023-02-26T11:35:16.785Z,3.36
2023-02-26T11:36:17.311Z,3.55
2023-02-26T11:37:16.797Z,4.02
2023-02-26T11:38:17.411Z,4.20
2023-02-26T11:39:17.105Z,4.31
2023-02-26T11:40:16.638Z,4.51
2023-02-26T11:41:17.161Z,4.20
2023-02-26T11:42:16.406Z,3.85
2023-02-26T11:43:16.915Z,3.82
2023-02-26T11:44:16.414Z,4.03
2023-02-26T11:45:16.929Z,4.18
2023-02-26T11:46:16.478Z,3.78
2023-02-26T11:47:17.094Z,4.03
2023-02-26T11:48:16.657Z,4.00
2023-02-26T11:49:17.155Z,3.92
2023-02-26T11:50:16.710Z,4.09
2023-02-26T11:51:17.196Z,3.89
2023-02-26T11:52:16.708Z,4.05
2023-02-26T11:53:17.317Z,3.89
2023-02-26T11:54:16.952Z,3.69
2023-02-26T11:55:16.428Z,3.77
2023-02-26T11:56:16.958Z,3.99
2023-02-26T11:57:16.489Z,3.83
2023-02-26T11:58:16.991Z,3.57
2023-02-26T11:59:16.564Z,3.41
2023-02-26T12:00:17.178Z,2.95
2023-02-26T12:01:16.704Z,2.74
2023-02-26T12:02:16.742Z,2.77
2023-02-26T12:03:17.323Z,2.63
2023-02-26T12:04:16.838Z,2.50
2023-02-26T12:05:16.369Z,2.49
2023-02-26T12:06:16.929Z,2.53
2023-02-26T12:07:16.422Z,2.54
2023-02-26T12:08:16.917Z,2.37
2023-02-26T12:09:16.411Z,2.61
2023-02-26T12:10:16.924Z,2.65
2023-02-26T12:11:16.435Z,2.88
2023-02-26T12:12:17.100Z,2.87
2023-02-26T12:13:16.580Z,2.82
2023-02-26T12:14:17.083Z,2.72
2023-02-26T12:15:16.590Z,2.70
2023-02-26T12:16:17.135Z,2.53
2023-02-26T12:17:16.750Z,2.64
2023-02-26T12:18:17.228Z,2.95
2023-02-26T12:19:16.706Z,3.06
2023-02-26T12:20:17.245Z,2.84
2023-02-26T12:21:16.758Z,2.64
2023-02-26T12:22:16.398Z,2.65
2023-02-26T12:23:16.915Z,2.50
2023-02-26T12:24:16.421Z,2.42
2023-02-26T12:25:16.924Z,2.37
2023-02-26T12:26:16.403Z,2.42
2023-02-26T12:27:16.891Z,2.13
2023-02-26T12:28:16.370Z,2.10
2023-02-26T12:29:16.850Z,2.17
2023-02-26T12:30:16.363Z,2.25
2023-02-26T12:31:16.959Z,2.22
2023-02-26T12:32:16.661Z,2.22
2023-02-26T12:33:16.314Z,2.39
2023-02-26T12:34:16.840Z,2.51
2023-02-26T12:35:16.353Z,2.57
2023-02-26T12:36:16.844Z,2.56
2023-02-26T12:37:16.373Z,2.60
2023-02-26T12:38:16.881Z,2.77
2023-02-26T12:39:16.395Z,2.87
2023-02-26T12:40:16.898Z,2.98
2023-02-26T12:41:16.374Z,2.81
2023-02-26T12:42:16.316Z,2.74
2023-02-26T12:43:16.818Z,2.68
2023-02-26T12:44:16.322Z,2.44
2023-02-26T12:45:16.837Z,2.47
2023-02-26T12:46:16.415Z,2.49
2023-02-26T12:47:16.922Z,2.39
2023-02-26T12:48:16.422Z,2.23
2023-02-26T12:49:16.928Z,2.28
2023-02-26T12:50:16.425Z,2.33
2023-02-26T12:51:16.931Z,2.20
2023-02-26T12:52:16.501Z,2.12
2023-02-26T12:53:17.005Z,2.22
2023-02-26T12:54:16.515Z,2.33
2023-02-26T12:55:17.011Z,2.36
2023-02-26T12:56:16.512Z,2.36
2023-02-26T12:57:17.000Z,2.29
2023-02-26T12:58:16.479Z,2.39
2023-02-26T12:59:16.991Z,2.46
2023-02-26T13:00:16.523Z,2.43
2023-02-26T13:01:17.036Z,2.50
2023-02-26T13:02:16.613Z,2.39